Time;durP1;ratioP1;P1;durP2;ratioP2;P2;SDS_P1;SDS_P2;PMS_P1;PMS_P2;Temp;Humidity;BMP_temperature;BMP_pressure;BME280_temperature;BME280_humidity;BME280_pressure;Samples;Min_cycle;Max_cycle;Signal;HPM_P1;HPM_P2
2022/10/12 00:01:30;;;;;;;3.87;2.13;;;7.80;99.90;;;;;;5055094;28;20040;-77
2022/10/12 00:03:56;;;;;;;5.07;2.70;;;7.80;99.90;;;;;;5054546;28;20044;-78
2022/10/12 00:06:23;;;;;;;7.05;2.60;;;7.90;99.90;;;;;;5071155;28;20166;-78
2022/10/12 00:08:52;;;;;;;5.07;2.70;;;7.80;99.90;;;;;;5054786;28;20503;-79
2022/10/12 00:11:22;;;;;;;7.18;3.20;;;7.80;99.90;;;;;;5070824;28;20036;-79
2022/10/12 00:13:48;;;;;;;7.15;2.88;;;7.80;99.90;;;;;;5068926;28;20048;-79
2022/10/12 00:16:15;;;;;;;9.38;3.15;;;7.90;99.90;;;;;;5054698;28;20044;-79
2022/10/12 00:18:41;;;;;;;6.45;3.45;;;7.90;99.90;;;;;;5054423;28;20036;-79
2022/10/12 00:21:10;;;;;;;5.03;3.05;;;7.90;99.90;;;;;;5070614;28;20029;-77
2022/10/12 00:23:37;;;;;;;6.97;3.10;;;8.00;99.90;;;;;;5071295;28;20047;-77
2022/10/12 00:26:08;;;;;;;8.40;2.88;;;7.90;99.90;;;;;;5071062;28;20412;-78
2022/10/12 00:28:34;;;;;;;9.38;3.80;;;7.90;99.90;;;;;;5071026;28;20036;-79
2022/10/12 00:31:00;;;;;;;;;;;7.90;99.90;;;;;;5071288;28;20051;-78
2022/10/12 00:33:29;;;;;;;8.55;3.00;;;7.90;99.90;;;;;;5070272;28;20530;-78
2022/10/12 00:35:55;;;;;;;6.65;3.78;;;7.90;99.90;;;;;;5052140;28;20094;-78
2022/10/12 00:38:22;;;;;;;9.07;3.40;;;8.20;99.90;;;;;;5070979;28;20033;-78
2022/10/12 00:40:47;;;;;;;10.32;3.67;;;8.20;99.90;;;;;;5070794;28;20097;-78
2022/10/12 00:43:36;;;;;;;10.07;3.23;;;8.00;99.90;;;;;;5053777;28;20041;-78
2022/10/12 00:46:09;;;;;;;9.98;3.28;;;7.90;99.90;;;;;;5054237;28;20800;-78
2022/10/12 00:48:36;;;;;;;7.78;3.20;;;7.90;99.90;;;;;;5068795;28;20079;-78
2022/10/12 00:51:03;;;;;;;8.88;3.20;;;8.30;99.90;;;;;;5053912;28;20039;-78
2022/10/12 00:53:31;;;;;;;;;;;7.90;99.90;;;;;;5053862;28;20033;-77
2022/10/12 00:56:03;;;;;;;7.85;3.05;;;7.90;99.90;;;;;;5087099;28;20073;-78
2022/10/12 00:58:30;;;;;;;8.07;3.25;;;7.90;99.90;;;;;;5070466;28;20036;-77
2022/10/12 01:01:01;;;;;;;9.93;3.55;;;8.10;99.90;;;;;;5067812;28;20036;-76
2022/10/12 01:03:27;;;;;;;10.18;3.90;;;7.90;99.90;;;;;;5036690;28;20043;-78
2022/10/12 01:05:53;;;;;;;9.02;3.42;;;7.90;99.90;;;;;;5054050;28;20056;-77
2022/10/12 01:08:20;;;;;;;7.35;3.33;;;8.50;99.90;;;;;;5070210;28;20431;-77
2022/10/12 01:10:46;;;;;;;8.88;3.30;;;7.90;99.90;;;;;;5037094;28;20565;-77
2022/10/12 01:13:12;;;;;;;9.03;3.20;;;7.90;99.90;;;;;;5070326;28;20130;-77
2022/10/12 01:15:49;;;;;;;8.75;3.17;;;7.90;99.90;;;;;;5070057;28;20283;-77
2022/10/12 01:18:19;;;;;;;;;;;7.90;99.90;;;;;;5070747;28;20028;-76
2022/10/12 01:21:15;;;;;;;7.15;2.90;;;7.80;99.90;;;;;;5070600;28;19999;-77
2022/10/12 01:23:56;;;;;;;5.43;2.85;;;7.80;99.90;;;;;;5068456;28;20048;-77
2022/10/12 01:26:29;;;;;;;5.80;2.97;;;7.70;99.90;;;;;;5054091;28;20041;-77
2022/10/12 01:29:24;;;;;;;6.22;2.83;;;7.70;99.90;;;;;;5070282;28;20045;-77
2022/10/12 01:32:06;;;;;;;6.93;2.60;;;7.60;99.90;;;;;;5069740;28;20047;-77
2022/10/12 01:34:52;;;;;;;5.63;2.72;;;7.50;99.90;;;;;;5067681;28;20044;-77
2022/10/12 01:37:27;;;;;;;5.07;1.90;;;7.60;99.90;;;;;;5053236;28;20119;-77
2022/10/12 01:39:55;;;;;;;3.35;1.70;;;7.30;99.90;;;;;;5068473;28;20418;-77
2022/10/12 01:42:30;;;;;;;4.82;1.85;;;7.20;99.90;;;;;;5069696;28;20041;-77
2022/10/12 01:45:05;;;;;;;3.35;2.00;;;7.10;99.90;;;;;;5052010;28;20041;-77
2022/10/12 01:47:32;;;;;;;8.20;2.08;;;7.10;99.90;;;;;;5069910;28;20078;-77
2022/10/12 01:50:00;;;;;;;2.83;1.90;;;7.10;99.90;;;;;;5069892;28;20044;-77
2022/10/12 01:52:30;;;;;;;4.25;1.90;;;7.00;99.90;;;;;;5069565;28;20047;-77
2022/10/12 01:54:59;;;;;;;3.03;1.50;;;7.00;99.90;;;;;;5053063;28;20102;-77
2022/10/12 01:57:40;;;;;;;4.47;2.05;;;7.10;99.90;;;;;;5053168;28;20044;-77
2022/10/12 02:00:10;;;;;;;3.13;1.70;;;7.00;99.90;;;;;;5053114;28;20115;-77
2022/10/12 02:03:29;;;;;;;3.25;1.80;;;7.00;99.90;;;;;;5069694;28;20116;-77
2022/10/12 02:06:07;;;;;;;6.20;2.05;;;7.00;99.90;;;;;;5040249;28;20109;-77
2022/10/12 02:08:40;;;;;;;4.82;2.58;;;7.00;99.90;;;;;;5073273;28;20040;-77
2022/10/12 02:11:09;;;;;;;8.30;3.22;;;7.00;99.90;;;;;;5073163;28;20051;-77
2022/10/12 02:13:40;;;;;;;8.88;2.95;;;7.10;99.90;;;;;;5056567;28;20043;-78
2022/10/12 02:16:10;;;;;;;6.50;2.75;;;7.50;99.90;;;;;;5073453;28;20047;-77
2022/10/12 02:18:41;;;;;;;7.90;3.55;;;7.20;99.90;;;;;;5073365;28;20032;-78
2022/10/12 02:21:09;;;;;;;4.90;2.90;;;7.50;99.90;;;;;;5056602;28;20455;-78
2022/10/12 02:23:37;;;;;;;10.18;3.88;;;7.30;99.90;;;;;;5056547;28;20484;-78
2022/10/12 02:26:04;;;;;;;10.02;3.40;;;7.30;99.90;;;;;;5073176;28;20125;-78
2022/10/12 02:28:33;;;;;;;10.70;3.47;;;7.30;99.90;;;;;;5073384;28;20040;-78
2022/10/12 02:31:05;;;;;;;8.48;3.38;;;7.30;99.90;;;;;;5072972;28;20052;-78
2022/10/12 02:34:03;;;;;;;10.75;3.65;;;7.40;99.90;;;;;;5072818;28;20124;-78
2022/10/12 02:36:39;;;;;;;8.65;3.22;;;7.40;99.90;;;;;;5055395;28;20048;-78
2022/10/12 02:39:11;;;;;;;10.13;3.35;;;7.40;99.90;;;;;;5072068;28;20040;-78
2022/10/12 02:41:48;;;;;;;10.27;4.10;;;7.50;99.90;;;;;;5071112;28;20044;-78
2022/10/12 02:44:18;;;;;;;9.10;3.42;;;7.50;99.90;;;;;;5073267;28;20562;-78
2022/10/12 02:46:46;;;;;;;11.13;3.88;;;7.60;99.90;;;;;;5056527;28;20496;-78
2022/10/12 02:49:13;;;;;;;6.43;3.30;;;7.60;99.90;;;;;;5039819;28;20052;-78
2022/10/12 02:51:39;;;;;;;8.52;3.63;;;7.60;99.90;;;;;;5072861;28;20453;-78
2022/10/12 02:54:05;;;;;;;10.00;4.75;;;8.20;99.90;;;;;;5039788;28;20037;-78
2022/10/12 02:56:31;;;;;;;6.87;3.30;;;7.70;99.90;;;;;;5072545;28;20090;-78
2022/10/12 02:58:57;;;;;;;8.77;3.67;;;7.70;99.90;;;;;;5056611;28;20274;-78
2022/10/12 03:01:23;;;;;;;7.07;3.10;;;7.70;99.90;;;;;;5072875;28;20033;-79
2022/10/12 03:03:48;;;;;;;8.57;3.20;;;7.60;99.90;;;;;;5072431;28;20400;-78
2022/10/12 03:06:14;;;;;;;6.30;3.33;;;7.60;99.90;;;;;;5056210;28;20390;-78
2022/10/12 03:08:42;;;;;;;9.05;3.42;;;7.60;99.90;;;;;;5055551;28;20458;-78
2022/10/12 03:11:11;;;;;;;10.77;3.50;;;7.60;99.90;;;;;;5056014;28;20028;-78
2022/10/12 03:13:36;;;;;;;7.97;3.50;;;7.60;99.90;;;;;;5072608;28;20032;-78
2022/10/12 03:16:04;;;;;;;8.20;3.50;;;7.60;99.90;;;;;;5072199;28;20037;-78
2022/10/12 03:18:31;;;;;;;8.18;3.70;;;7.60;99.90;;;;;;5072124;28;20058;-78
2022/10/12 03:20:57;;;;;;;9.70;3.95;;;7.60;99.90;;;;;;5072280;28;20119;-78
2022/10/12 03:23:22;;;;;;;7.82;3.35;;;7.60;99.90;;;;;;5055018;28;20041;-78
2022/10/12 03:25:48;;;;;;;8.88;3.72;;;7.60;99.90;;;;;;5055500;28;20037;-78
2022/10/12 03:28:14;;;;;;;7.83;3.60;;;7.60;99.90;;;;;;5055701;28;20500;-78
2022/10/12 03:30:41;;;;;;;9.90;3.77;;;7.60;99.90;;;;;;5071945;28;20298;-78
2022/10/12 03:33:06;;;;;;;8.82;3.88;;;7.70;99.90;;;;;;5071997;28;20514;-79
2022/10/12 03:35:32;;;;;;;6.13;3.27;;;7.60;99.90;;;;;;5038671;28;20112;-78
2022/10/12 03:37:58;;;;;;;11.53;4.80;;;7.60;99.90;;;;;;5071926;28;20574;-78
2022/10/12 03:40:23;;;;;;;7.57;3.40;;;7.60;99.90;;;;;;5055176;28;20135;-78
2022/10/12 03:42:49;;;;;;;9.93;4.17;;;7.60;99.90;;;;;;5038495;28;20408;-78
2022/10/12 03:45:15;;;;;;;6.20;3.50;;;7.50;99.90;;;;;;5071703;28;20041;-78
2022/10/12 03:47:40;;;;;;;7.10;3.73;;;7.50;99.90;;;;;;5071551;28;20060;-77
2022/10/12 03:50:06;;;;;;;8.18;3.40;;;7.80;99.90;;;;;;5054984;28;20045;-77
2022/10/12 03:52:32;;;;;;;8.48;3.40;;;7.50;99.90;;;;;;5054997;28;20049;-77
2022/10/12 03:54:58;;;;;;;8.83;3.70;;;7.50;99.90;;;;;;5071560;28;20032;-78
2022/10/12 03:57:23;;;;;;;10.97;3.83;;;7.50;99.90;;;;;;5055451;28;20369;-77
2022/10/12 03:59:52;;;;;;;13.87;4.23;;;7.60;99.90;;;;;;5071395;28;20063;-77
2022/10/12 04:02:18;;;;;;;9.30;3.20;;;7.60;99.90;;;;;;5069344;28;20451;-77
2022/10/12 04:04:43;;;;;;;7.80;3.77;;;7.60;99.90;;;;;;5037988;28;20041;-78
2022/10/12 04:07:09;;;;;;;12.33;3.87;;;7.60;99.90;;;;;;5054730;28;20400;-78
2022/10/12 04:09:35;;;;;;;9.82;3.70;;;7.60;99.90;;;;;;5037696;28;20037;-77
2022/10/12 04:12:00;;;;;;;6.77;3.67;;;7.70;99.90;;;;;;5070951;28;20112;-77
2022/10/12 04:14:26;;;;;;;7.32;3.30;;;7.70;99.90;;;;;;5070569;28;20040;-78
2022/10/12 04:16:53;;;;;;;6.73;3.33;;;7.70;99.90;;;;;;5037958;28;20685;-78
2022/10/12 04:19:19;;;;;;;7.90;3.67;;;7.70;99.90;;;;;;5071207;28;20118;-78
2022/10/12 04:21:44;;;;;;;10.23;3.40;;;7.70;99.90;;;;;;5070800;28;20041;-77
2022/10/12 04:24:10;;;;;;;5.45;2.63;;;7.70;99.90;;;;;;5054676;28;20041;-78
2022/10/12 04:26:36;;;;;;;9.07;3.50;;;7.70;99.90;;;;;;5070359;28;20076;-77
2022/10/12 04:29:02;;;;;;;16.25;4.38;;;7.70;99.90;;;;;;5071271;28;20047;-76
2022/10/12 04:31:28;;;;;;;8.48;3.28;;;7.70;99.90;;;;;;5070659;28;20028;-76
2022/10/12 04:33:56;;;;;;;10.40;3.15;;;7.70;99.90;;;;;;5070391;28;20516;-76
2022/10/12 04:36:23;;;;;;;12.07;3.97;;;7.70;99.90;;;;;;5070671;28;20167;-76
2022/10/12 04:38:49;;;;;;;7.13;3.35;;;7.70;99.90;;;;;;5068308;28;20041;-77
2022/10/12 04:41:14;;;;;;;9.73;3.50;;;7.70;99.90;;;;;;5071261;28;20036;-78
2022/10/12 04:43:40;;;;;;;8.47;2.80;;;7.70;99.90;;;;;;5054350;28;20114;-77
2022/10/12 04:46:06;;;;;;;5.90;3.03;;;7.70;99.90;;;;;;5071018;28;20658;-79
2022/10/12 04:48:32;;;;;;;7.63;3.65;;;7.70;99.90;;;;;;5054380;28;20283;-78
2022/10/12 04:50:57;;;;;;;8.90;3.37;;;7.70;99.90;;;;;;5054117;28;20106;-79
2022/10/12 04:53:23;;;;;;;6.53;3.13;;;7.60;99.90;;;;;;5054564;28;20043;-79
2022/10/12 04:55:49;;;;;;;8.77;3.63;;;7.60;99.90;;;;;;5054291;28;20105;-80
2022/10/12 04:58:14;;;;;;;8.40;2.88;;;7.60;99.90;;;;;;5071320;28;20036;-80
2022/10/12 05:00:44;;;;;;;8.43;3.43;;;7.60;99.90;;;;;;5054390;28;20554;-80
2022/10/12 05:03:09;;;;;;;10.90;3.60;;;7.50;99.90;;;;;;5070945;28;20037;-80
2022/10/12 05:05:35;;;;;;;6.47;3.10;;;7.70;99.90;;;;;;5054192;28;20040;-80
2022/10/12 05:08:02;;;;;;;6.43;3.25;;;7.50;99.90;;;;;;5071096;28;20123;-80
2022/10/12 05:10:28;;;;;;;9.35;3.45;;;7.50;99.90;;;;;;5070882;28;20028;-80
2022/10/12 05:12:54;;;;;;;12.57;3.50;;;7.50;99.90;;;;;;5037143;28;20032;-80
2022/10/12 05:15:19;;;;;;;8.97;3.10;;;7.50;99.90;;;;;;5071021;28;20075;-80
2022/10/12 05:17:45;;;;;;;8.03;3.17;;;7.40;99.90;;;;;;5037500;28;20048;-80
2022/10/12 05:20:11;;;;;;;14.40;3.50;;;7.50;99.90;;;;;;5037526;28;20351;-79
2022/10/12 05:22:36;;;;;;;7.68;3.20;;;7.50;99.90;;;;;;5070900;28;20037;-80
2022/10/12 05:25:03;;;;;;;12.80;3.60;;;7.40;99.90;;;;;;5070967;28;20032;-80
2022/10/12 05:27:29;;;;;;;6.15;3.55;;;7.40;99.90;;;;;;5070492;28;20283;-79
2022/10/12 05:29:55;;;;;;;9.77;3.67;;;7.40;99.90;;;;;;5070565;28;20070;-79
2022/10/12 05:32:21;;;;;;;7.13;3.35;;;7.40;99.90;;;;;;5054088;28;20180;-79
2022/10/12 05:34:47;;;;;;;7.10;3.00;;;7.40;99.90;;;;;;5054246;28;20047;-80
2022/10/12 05:37:12;;;;;;;8.05;3.25;;;7.90;99.90;;;;;;5070731;28;20279;-78
2022/10/12 05:39:38;;;;;;;8.57;2.93;;;7.40;99.90;;;;;;5074697;28;20107;-79
2022/10/12 05:42:04;;;;;;;7.53;3.63;;;7.20;99.90;;;;;;5073996;28;20043;-77
2022/10/12 05:44:30;;;;;;;8.30;3.17;;;7.10;99.90;;;;;;5073691;28;20127;-77
2022/10/12 05:46:55;;;;;;;8.80;3.40;;;7.10;99.90;;;;;;5056134;28;20068;-75
2022/10/12 05:49:21;;;;;;;7.03;3.57;;;7.00;99.90;;;;;;5073225;28;20409;-76
2022/10/12 05:51:47;;;;;;;9.33;4.07;;;7.00;99.90;;;;;;5073331;28;20438;-76
2022/10/12 05:54:12;;;;;;;10.45;4.90;;;7.40;99.90;;;;;;5057106;28;20072;-77
2022/10/12 05:56:38;;;;;;;14.03;4.87;;;7.00;99.90;;;;;;5073509;28;20036;-76
2022/10/12 05:59:04;;;;;;;12.48;5.25;;;7.00;99.90;;;;;;5073199;28;20283;-75
2022/10/12 06:01:29;;;;;;;11.47;5.00;;;7.30;99.90;;;;;;5073804;28;20389;-75
2022/10/12 06:03:55;;;;;;;12.60;5.23;;;7.00;99.90;;;;;;5056031;28;20286;-75
2022/10/12 06:06:21;;;;;;;10.83;5.17;;;7.00;99.90;;;;;;5073389;28;20064;-76
2022/10/12 06:08:47;;;;;;;11.30;5.45;;;7.00;99.90;;;;;;5056157;28;20115;-76
2022/10/12 06:11:13;;;;;;;10.95;5.25;;;7.00;99.90;;;;;;5072281;28;20120;-76
2022/10/12 06:13:39;;;;;;;11.68;5.50;;;7.00;99.90;;;;;;5072336;28;20051;-76
2022/10/12 06:16:05;;;;;;;12.43;5.50;;;7.00;99.90;;;;;;5056085;28;20037;-75
2022/10/12 06:18:31;;;;;;;7.85;4.82;;;7.00;99.90;;;;;;5072631;28;20291;-75
2022/10/12 06:20:57;;;;;;;12.82;4.80;;;7.00;99.90;;;;;;5055508;28;20051;-76
2022/10/12 06:23:23;;;;;;;12.43;5.43;;;7.00;99.90;;;;;;5071967;28;20119;-76
2022/10/12 06:25:50;;;;;;;9.23;5.28;;;7.00;99.90;;;;;;5055214;28;20488;-76
2022/10/12 06:28:19;;;;;;;13.88;5.45;;;7.00;99.90;;;;;;5071734;28;20044;-77
2022/10/12 06:30:51;;;;;;;12.35;5.32;;;7.00;99.90;;;;;;5054779;28;20045;-76
2022/10/12 06:33:16;;;;;;;10.30;5.00;;;7.00;99.90;;;;;;5071493;28;20127;-77
2022/10/12 06:35:42;;;;;;;9.87;5.20;;;7.00;99.90;;;;;;5071836;28;20511;-76
2022/10/12 06:38:08;;;;;;;11.43;5.27;;;7.00;99.90;;;;;;5039724;28;20032;-76
2022/10/12 06:40:33;;;;;;;10.50;4.47;;;7.10;99.90;;;;;;5053373;28;20040;-76
2022/10/12 06:43:01;;;;;;;14.47;5.30;;;7.20;99.90;;;;;;5038940;28;20766;-76
2022/10/12 06:45:30;;;;;;;9.88;5.55;;;7.20;99.90;;;;;;5072776;28;20048;-76
2022/10/12 06:47:56;;;;;;;12.45;4.78;;;7.30;99.90;;;;;;5053886;28;20514;-76
2022/10/12 06:50:23;;;;;;;12.20;4.97;;;7.40;99.90;;;;;;5055178;28;20041;-76
2022/10/12 06:52:48;;;;;;;10.88;4.78;;;7.60;99.90;;;;;;5039547;28;20385;-76
2022/10/12 06:55:15;;;;;;;12.00;4.70;;;7.60;99.90;;;;;;5072134;28;20036;-76
2022/10/12 06:57:40;;;;;;;9.82;4.60;;;7.70;99.90;;;;;;5055572;28;20040;-76
2022/10/12 07:00:07;;;;;;;10.57;4.68;;;7.90;99.90;;;;;;5072486;28;20383;-76
2022/10/12 07:02:33;;;;;;;10.50;5.28;;;8.10;99.90;;;;;;5072279;28;20044;-76
2022/10/12 07:05:00;;;;;;;12.05;4.90;;;8.20;99.90;;;;;;5071664;28;20422;-78
2022/10/12 07:07:28;;;;;;;10.82;4.88;;;8.30;99.90;;;;;;5071677;28;20041;-78
2022/10/12 07:09:54;;;;;;;7.10;4.13;;;8.50;99.90;;;;;;5071484;28;20579;-78
2022/10/12 07:12:19;;;;;;;12.47;4.70;;;8.60;99.90;;;;;;5071531;28;20115;-78
2022/10/12 07:14:45;;;;;;;16.30;5.30;;;8.80;99.90;;;;;;5072551;28;20515;-78
2022/10/12 07:17:11;;;;;;;8.63;4.50;;;8.90;99.90;;;;;;5055152;28;20127;-78
2022/10/12 07:19:36;;;;;;;10.20;5.00;;;9.00;99.90;;;;;;5071474;28;20343;-77
2022/10/12 07:22:02;;;;;;;11.27;5.33;;;9.10;99.90;;;;;;5071321;28;20856;-78
2022/10/12 07:24:35;;;;;;;12.43;5.20;;;9.20;99.90;;;;;;5055074;28;20476;-78
2022/10/12 07:27:02;;;;;;;11.18;4.90;;;9.40;99.90;;;;;;5071649;28;20500;-78
2022/10/12 07:29:30;;;;;;;9.85;4.60;;;9.50;99.90;;;;;;5049986;28;20076;-78
2022/10/12 07:31:57;;;;;;;14.52;4.93;;;9.70;99.90;;;;;;5071085;28;20040;-78
2022/10/12 07:34:24;;;;;;;9.98;5.18;;;9.80;99.90;;;;;;5071343;28;20453;-77
2022/10/12 07:36:50;;;;;;;8.63;5.32;;;10.00;99.90;;;;;;5054766;28;20048;-78
2022/10/12 07:39:15;;;;;;;12.35;5.15;;;10.20;99.90;;;;;;5071841;28;20036;-78
2022/10/12 07:41:41;;;;;;;11.53;4.77;;;10.40;99.90;;;;;;5071978;28;20040;-78
2022/10/12 07:44:07;;;;;;;11.90;5.03;;;10.50;99.90;;;;;;5054292;28;20357;-78
2022/10/12 07:46:33;;;;;;;10.03;4.23;;;10.90;99.90;;;;;;5071351;28;20040;-78
2022/10/12 07:48:59;;;;;;;11.95;3.92;;;11.60;99.90;;;;;;5054158;28;20123;-78
2022/10/12 07:51:24;;;;;;;7.03;4.03;;;12.40;99.90;;;;;;5054600;28;20496;-78
2022/10/12 07:53:50;;;;;;;9.63;4.13;;;13.20;99.90;;;;;;5071421;28;20037;-78
2022/10/12 07:56:16;;;;;;;10.07;4.15;;;13.80;99.90;;;;;;5054494;28;20275;-78
2022/10/12 07:58:50;;;;;;;9.73;4.15;;;14.30;99.90;;;;;;5071052;28;20070;-79
2022/10/12 08:01:17;;;;;;;7.40;3.75;;;14.80;99.90;;;;;;5069981;28;20094;-79
2022/10/12 08:03:43;;;;;;;7.95;4.20;;;15.30;99.90;;;;;;5068739;28;20045;-80
2022/10/12 08:06:12;;;;;;;9.25;3.97;;;15.70;99.90;;;;;;5053916;28;20040;-80
2022/10/12 08:08:38;;;;;;;10.38;3.72;;;16.10;99.90;;;;;;5070879;28;20032;-80
2022/10/12 08:11:04;;;;;;;9.48;3.85;;;16.40;99.90;;;;;;5070525;28;20101;-80
2022/10/12 08:13:31;;;;;;;8.30;3.90;;;16.60;99.90;;;;;;5053987;28;20041;-78
2022/10/12 08:15:56;;;;;;;;;;;17.10;99.90;;;;;;5070934;28;20153;-78
2022/10/12 08:18:22;;;;;;;9.85;4.10;;;17.40;99.90;;;;;;5070819;28;20017;-78
2022/10/12 08:20:48;;;;;;;8.68;3.95;;;18.00;99.90;;;;;;5070688;28;20055;-78
2022/10/12 08:23:13;;;;;;;7.03;4.15;;;18.30;99.90;;;;;;5070820;28;20123;-79
2022/10/12 08:25:39;;;;;;;11.38;4.60;;;18.50;99.90;;;;;;5070613;28;20044;-79
2022/10/12 08:28:05;;;;;;;9.38;4.03;;;18.50;99.90;;;;;;5053710;28;20044;-79
2022/10/12 08:30:32;;;;;;;9.80;4.15;;;18.20;99.90;;;;;;5053608;28;20036;-79
2022/10/12 08:32:58;;;;;;;10.07;4.05;;;17.80;99.90;;;;;;5069774;28;20070;-79
2022/10/12 08:35:24;;;;;;;8.82;4.00;;;17.50;99.90;;;;;;5054031;28;20123;-79
2022/10/12 08:37:50;;;;;;;10.05;4.20;;;17.20;99.90;;;;;;5070179;28;20079;-79
2022/10/12 08:40:19;;;;;;;8.50;4.47;;;16.80;99.90;;;;;;5070189;28;20079;-79
2022/10/12 08:43:16;;;;;;;11.23;4.93;;;16.40;99.90;;;;;;5059241;28;20045;-79
2022/10/12 08:45:52;;;;;;;10.47;5.03;;;15.80;99.90;;;;;;5067071;28;20107;-79
2022/10/12 08:48:22;;;;;;;9.80;5.03;;;15.30;99.90;;;;;;5068027;28;20124;-79
2022/10/12 08:50:53;;;;;;;12.40;5.03;;;15.20;99.90;;;;;;5070426;28;20040;-79
2022/10/12 08:53:27;;;;;;;9.52;5.07;;;14.90;99.90;;;;;;5053333;28;20040;-79
2022/10/12 08:55:53;;;;;;;7.75;4.97;;;14.70;99.90;;;;;;5048670;28;20028;-79
2022/10/12 08:58:39;;;;;;;9.15;5.00;;;14.50;99.90;;;;;;5069743;28;20054;-79
2022/10/12 09:01:29;;;;;;;13.77;5.80;;;14.30;99.90;;;;;;5066579;28;20502;-78
2022/10/12 09:04:05;;;;;;;11.18;5.35;;;14.10;99.90;;;;;;5068593;28;20047;-78
2022/10/12 09:06:42;;;;;;;11.98;6.30;;;14.10;99.90;;;;;;5068653;28;20039;-79
2022/10/12 09:09:35;;;;;;;11.70;6.28;;;14.30;99.90;;;;;;5067921;28;20044;-78
2022/10/12 09:12:24;;;;;;;8.30;4.95;;;14.70;99.90;;;;;;5067618;28;20056;-78
2022/10/12 09:14:54;;;;;;;12.02;5.63;;;15.40;99.90;;;;;;5053181;28;20430;-78
2022/10/12 09:17:37;;;;;;;10.70;5.55;;;15.60;99.90;;;;;;5070000;28;20040;-78
2022/10/12 09:20:24;;;;;;;12.40;5.53;;;16.00;99.90;;;;;;5068600;28;20138;-78
2022/10/12 09:23:01;;;;;;;10.90;5.45;;;16.30;99.90;;;;;;5068169;28;20452;-79
2022/10/12 09:25:27;;;;;;;13.68;5.57;;;16.80;99.90;;;;;;5067663;28;20048;-79
2022/10/12 09:28:06;;;;;;;10.80;5.53;;;17.40;99.90;;;;;;5069635;28;20052;-78
2022/10/12 09:30:40;;;;;;;11.60;4.47;;;18.10;99.90;;;;;;5051531;28;20037;-79
2022/10/12 09:33:31;;;;;;;7.75;4.40;;;19.20;99.90;;;;;;5067184;28;20389;-78
2022/10/12 09:35:57;;;;;;;9.32;4.50;;;19.50;99.90;;;;;;5068912;28;20516;-78
2022/10/12 09:38:23;;;;;;;10.70;3.72;;;20.00;99.90;;;;;;5069771;28;20036;-79
2022/10/12 09:40:49;;;;;;;;;;;20.80;99.90;;;;;;5070458;28;20051;-79
2022/10/12 09:43:14;;;;;;;10.98;3.90;;;21.20;99.00;;;;;;5069339;28;19916;-79
2022/10/12 09:45:41;;;;;;;7.90;3.50;;;21.60;99.40;;;;;;5053264;28;20036;-79
2022/10/12 09:48:23;;;;;;;8.10;3.30;;;22.00;99.20;;;;;;5069040;28;20070;-79
2022/10/12 09:50:51;;;;;;;5.40;2.80;;;21.80;97.50;;;;;;5049823;28;20048;-79
2022/10/12 09:53:34;;;;;;;9.05;3.15;;;22.00;98.70;;;;;;5069282;28;20055;-78
2022/10/12 09:56:11;;;;;;;8.95;3.17;;;22.20;98.60;;;;;;5069181;28;20029;-79
2022/10/12 09:58:51;;;;;;;9.82;3.80;;;22.50;97.70;;;;;;5069448;28;20036;-77
2022/10/12 10:01:23;;;;;;;8.23;3.03;;;22.80;97.00;;;;;;5067538;28;20071;-77
2022/10/12 10:04:16;;;;;;;8.93;3.00;;;23.30;96.30;;;;;;5069847;28;20508;-77
2022/10/12 10:06:45;;;;;;;8.65;2.80;;;23.20;96.30;;;;;;5052573;28;20032;-78
2022/10/12 10:09:29;;;;;;;9.27;3.35;;;23.30;95.70;;;;;;5052520;28;20044;-77
2022/10/12 10:12:03;;;;;;;6.72;2.60;;;23.10;96.20;;;;;;5051983;28;20068;-77
2022/10/12 10:14:35;;;;;;;7.70;2.20;;;23.40;96.10;;;;;;5068215;28;20072;-77
2022/10/12 10:17:00;;;;;;;7.90;2.65;;;23.40;95.70;;;;;;5050228;28;20028;-77
2022/10/12 10:19:26;;;;;;;;;;;23.60;95.30;;;;;;5069921;28;20400;-77
2022/10/12 10:21:53;;;;;;;10.27;2.67;;;23.70;95.00;;;;;;5069122;28;19923;-77
2022/10/12 10:24:29;;;;;;;6.32;2.13;;;23.40;95.20;;;;;;5051990;28;20037;-77
2022/10/12 10:26:55;;;;;;;;;;;23.50;94.50;;;;;;5073275;28;20051;-77
2022/10/12 10:29:20;;;;;;;8.18;2.20;;;23.00;94.80;;;;;;5056103;28;19920;-78
2022/10/12 10:31:47;;;;;;;;;;;22.60;95.70;;;;;;5056578;28;20039;-78
2022/10/12 10:34:31;;;;;;;8.57;2.28;;;23.10;95.60;;;;;;5073427;28;19924;-78
2022/10/12 10:37:21;;;;;;;7.20;2.40;;;23.30;95.30;;;;;;5071738;28;20512;-78
2022/10/12 10:40:06;;;;;;;8.70;2.20;;;23.80;95.00;;;;;;5073223;28;20419;-81
2022/10/12 10:42:54;;;;;;;8.55;2.28;;;24.50;95.00;;;;;;5057258;28;20510;-80
2022/10/12 10:45:50;;;;;;;9.93;2.33;;;24.50;95.10;;;;;;5075101;28;20036;-84
2022/10/12 10:48:26;;;;;;;9.50;1.88;;;25.10;93.60;;;;;;5074029;28;20838;-85
2022/10/12 10:51:01;;;;;;;7.15;2.20;;;25.30;93.90;;;;;;5075072;28;20033;-87
2022/10/12 10:53:41;;;;;;;8.50;2.25;;;25.50;93.50;;;;;;5057103;28;20039;-86
2022/10/12 10:56:16;;;;;;;5.72;2.10;;;25.60;92.60;;;;;;5048227;28;20102;-84
2022/10/12 10:58:55;;;;;;;8.82;2.30;;;25.60;93.20;;;;;;5055176;28;20044;-87
2022/10/12 11:01:30;;;;;;;4.20;1.80;;;25.60;93.60;;;;;;5056195;28;20040;-87
2022/10/12 11:04:03;;;;;;;10.15;2.10;;;25.60;92.50;;;;;;5055600;28;20400;-84
2022/10/12 11:06:50;;;;;;;5.63;1.80;;;25.50;92.00;;;;;;5071245;28;20075;-84
2022/10/12 11:09:22;;;;;;;8.75;2.20;;;25.70;91.70;;;;;;5057546;28;20119;-94
2022/10/12 11:12:01;;;;;;;7.13;1.90;;;25.60;92.20;;;;;;5058861;28;20115;-89
2022/10/12 11:14:35;;;;;;;6.78;1.55;;;26.10;92.20;;;;;;5072155;28;20387;-87
2022/10/12 11:17:09;;;;;;;8.70;1.48;;;26.20;92.00;;;;;;5074192;28;20514;-85
2022/10/12 11:20:04;;;;;;;7.90;1.92;;;26.10;91.90;;;;;;5058971;28;20093;-92
2022/10/12 11:22:47;;;;;;;6.65;1.60;;;26.20;91.20;;;;;;5057978;28;20032;-90
2022/10/12 11:25:35;;;;;;;7.78;1.52;;;26.10;89.20;;;;;;5051003;28;20037;-92
2022/10/12 11:28:01;;;;;;;8.15;1.40;;;26.00;90.40;;;;;;5049888;28;20125;-93
2022/10/12 11:30:33;;;;;;;8.35;1.75;;;26.10;90.80;;;;;;5025204;28;20033;-91
2022/10/12 11:33:06;;;;;;;4.80;1.38;;;25.90;90.40;;;;;;5074490;28;20052;-92
2022/10/12 11:35:35;;;;;;;5.45;1.50;;;26.00;90.00;;;;;;5049738;28;20047;-91
2022/10/12 11:38:12;;;;;;;3.70;1.30;;;26.40;89.70;;;;;;5058301;28;20357;-91
2022/10/12 11:40:50;;;;;;;5.20;1.58;;;26.10;89.60;;;;;;5055227;28;20041;-90
2022/10/12 11:43:22;;;;;;;3.75;1.05;;;26.10;88.20;;;;;;5072894;28;20044;-89
2022/10/12 11:45:53;;;;;;;5.15;1.35;;;26.20;89.40;;;;;;5058049;28;20097;-88
2022/10/12 11:48:27;;;;;;;5.68;1.25;;;26.30;88.50;;;;;;5079176;28;20067;-90
2022/10/12 11:50:56;;;;;;;8.07;1.20;;;27.10;87.90;;;;;;5075223;28;20071;-91
2022/10/12 11:53:52;;;;;;;5.30;1.05;;;26.90;89.40;;;;;;5060965;28;20028;-92
2022/10/12 11:56:28;;;;;;;5.15;1.23;;;26.90;87.50;;;;;;5076567;28;20090;-90
2022/10/12 11:59:00;;;;;;;5.93;1.50;;;26.80;88.70;;;;;;5060942;28;20036;-90
2022/10/12 12:01:47;;;;;;;7.85;1.35;;;26.30;89.00;;;;;;5063442;28;20029;-90
2022/10/12 12:04:33;;;;;;;4.07;1.38;;;26.80;88.20;;;;;;5059377;28;20032;-91
2022/10/12 12:07:22;;;;;;;8.30;1.63;;;26.90;87.60;;;;;;5058377;28;20037;-90
2022/10/12 12:09:48;;;;;;;3.88;1.40;;;27.40;88.20;;;;;;5055145;28;20484;-90
2022/10/12 12:12:21;;;;;;;6.10;1.17;;;27.30;88.90;;;;;;5056064;28;20078;-91
2022/10/12 12:14:49;;;;;;;5.78;1.35;;;27.70;88.40;;;;;;5055787;28;20036;-86
2022/10/12 12:17:18;;;;;;;7.53;1.23;;;27.90;87.50;;;;;;5075632;28;20111;-90
2022/10/12 12:19:47;;;;;;;6.57;1.23;;;28.10;88.00;;;;;;5055928;28;20051;-89
2022/10/12 12:22:22;;;;;;;5.90;1.42;;;28.30;87.50;;;;;;5073329;28;20124;-91
2022/10/12 12:24:57;;;;;;;7.80;1.42;;;28.10;84.70;;;;;;5071184;28;20071;-89
2022/10/12 12:27:28;;;;;;;5.40;1.38;;;27.50;86.80;;;;;;5072978;28;20044;-87
2022/10/12 12:29:56;;;;;;;4.72;1.63;;;27.10;86.10;;;;;;5055601;28;20043;-86
2022/10/12 12:32:23;;;;;;;5.32;1.45;;;27.50;85.70;;;;;;5055299;28;20488;-86
2022/10/12 12:34:58;;;;;;;4.85;1.20;;;27.70;86.20;;;;;;5053722;28;20048;-88
2022/10/12 12:37:30;;;;;;;5.80;1.40;;;27.50;86.10;;;;;;5043365;28;20041;-85
2022/10/12 12:39:58;;;;;;;6.80;1.42;;;28.20;85.40;;;;;;5056420;28;20115;-86
2022/10/12 12:42:26;;;;;;;4.97;1.52;;;27.90;85.80;;;;;;5055974;28;20041;-89
2022/10/12 12:44:53;;;;;;;3.90;1.20;;;28.00;85.70;;;;;;5055448;28;20032;-88
2022/10/12 12:47:35;;;;;;;5.13;1.55;;;27.90;85.60;;;;;;5071451;28;20396;-88
2022/10/12 12:50:21;;;;;;;5.88;1.40;;;27.90;86.60;;;;;;5055432;28;20381;-88
2022/10/12 12:52:47;;;;;;;6.00;1.45;;;27.80;85.70;;;;;;5070546;28;20036;-88
2022/10/12 12:55:13;;;;;;;6.43;1.40;;;27.80;85.60;;;;;;5037043;28;20094;-88
2022/10/12 12:58:10;;;;;;;6.00;1.35;;;27.40;85.40;;;;;;5070827;28;20048;-86
2022/10/12 13:00:51;;;;;;;5.82;1.25;;;27.10;84.00;;;;;;5053188;28;20043;-88
2022/10/12 13:03:54;;;;;;;3.97;1.23;;;26.10;85.90;;;;;;5053696;28;20036;-88
2022/10/12 13:06:55;;;;;;;6.35;1.60;;;25.30;87.20;;;;;;5051442;28;20036;-88
2022/10/12 13:09:39;;;;;;;6.13;1.60;;;24.50;87.40;;;;;;5021311;28;20049;-88
2022/10/12 13:12:29;;;;;;;7.75;1.65;;;23.30;89.10;;;;;;5071076;28;20074;-88